LEBZ/BJZ METAR and TAF weather

Enter ICAO airport designator
Station Type Date Time Source
LEBZ METAR 2022/09/28 19:00 UTC NOAA

LEBZ 281900Z 27010KT CAVOK 21/10 Q1014


Station Type Date Time Source
LEBZ Decoded METAR 2022/09/28 19:00 UTC NOAA

Badajoz / Talavera La Real, Spain (LEBZ) 38-53N 006-49W 192M
Sep 28, 2022 - 03:00 PM EDT / 2022.09.28 1900 UTC
Wind: from the W (270 degrees) at 12 MPH (10 KT):0
Visibility: greater than 7 mile(s):0
Temperature: 69 F (21 C)
Dew Point: 50 F (10 C)
Relative Humidity: 49%
Pressure (altimeter): 29.94 in. Hg (1014 hPa)
ob: LEBZ 281900Z 27010KT CAVOK 21/10 Q1014
cycle: 19

Station Type Date Time Source
LEBZ TAF 2022/09/28 21:27 UTC NOAA

TAF TAF LEBZ 282000Z 2821/2921 29009KT CAVOK TX23/2915Z TN13/2906Z PROB30
TEMPO 2912/2916 RA BKN014

Example: see airport list